sensor_id;sensor_type;location;lat;lon;timestamp;pressure;altitude;pressure_sealevel;temperature;humidity
9141;BME280;46330;50.822;7.126;2022-11-30T00:01:28;101481.31;;;6.71;100.00
9141;BME280;46330;50.822;7.126;2022-11-30T00:03:56;101487.38;;;6.72;100.00
9141;BME280;46330;50.822;7.126;2022-11-30T00:06:25;101478.66;;;6.67;100.00
9141;BME280;46330;50.822;7.126;2022-11-30T00:08:53;101476.06;;;6.67;100.00
9141;BME280;46330;50.822;7.126;2022-11-30T00:11:23;101476.06;;;6.67;100.00
9141;BME280;46330;50.822;7.126;2022-11-30T00:13:52;101476.06;;;6.65;100.00
9141;BME280;46330;50.822;7.126;2022-11-30T00:16:20;101473.44;;;6.67;100.00
9141;BME280;46330;50.822;7.126;2022-11-30T00:18:48;101476.06;;;6.68;100.00
9141;BME280;46330;50.822;7.126;2022-11-30T00:21:16;101483.91;;;6.73;100.00
9141;BME280;46330;50.822;7.126;2022-11-30T00:23:46;101475.28;;;6.75;100.00
9141;BME280;46330;50.822;7.126;2022-11-30T00:26:16;101484.75;;;6.70;100.00
9141;BME280;46330;50.822;7.126;2022-11-30T00:28:44;101485.66;;;6.74;100.00
9141;BME280;46330;50.822;7.126;2022-11-30T00:31:14;101489.13;;;6.76;100.00
9141;BME280;46330;50.822;7.126;2022-11-30T00:33:43;101482.16;;;6.70;100.00
9141;BME280;46330;50.822;7.126;2022-11-30T00:36:12;101486.47;;;6.68;100.00
9141;BME280;46330;50.822;7.126;2022-11-30T00:38:41;101482.13;;;6.67;100.00
9141;BME280;46330;50.822;7.126;2022-11-30T00:41:10;101483.84;;;6.67;100.00
9141;BME280;46330;50.822;7.126;2022-11-30T00:43:38;101479.50;;;6.64;100.00
9141;BME280;46330;50.822;7.126;2022-11-30T00:46:06;101483.81;;;6.62;100.00
9141;BME280;46330;50.822;7.126;2022-11-30T00:48:35;101488.13;;;6.63;100.00
9141;BME280;46330;50.822;7.126;2022-11-30T00:51:03;101484.72;;;6.66;100.00
9141;BME280;46330;50.822;7.126;2022-11-30T00:53:31;101485.56;;;6.65;100.00
9141;BME280;46330;50.822;7.126;2022-11-30T00:55:59;101492.53;;;6.66;100.00
9141;BME280;46330;50.822;7.126;2022-11-30T00:58:28;101485.53;;;6.62;100.00
9141;BME280;46330;50.822;7.126;2022-11-30T01:00:56;101480.31;;;6.60;100.00
9141;BME280;46330;50.822;7.126;2022-11-30T01:03:24;101483.75;;;6.58;100.00
9141;BME280;46330;50.822;7.126;2022-11-30T01:05:52;101487.22;;;6.57;100.00
9141;BME280;46330;50.822;7.126;2022-11-30T01:08:19;101479.44;;;6.58;100.00
9141;BME280;46330;50.822;7.126;2022-11-30T01:10:47;101482.06;;;6.61;100.00
9141;BME280;46330;50.822;7.126;2022-11-30T01:13:19;101478.59;;;6.59;100.00
9141;BME280;46330;50.822;7.126;2022-11-30T01:15:48;101478.53;;;6.53;100.00
9141;BME280;46330;50.822;7.126;2022-11-30T01:18:16;101475.97;;;6.56;100.00
9141;BME280;46330;50.822;7.126;2022-11-30T01:20:44;101475.09;;;6.57;100.00
9141;BME280;46330;50.822;7.126;2022-11-30T01:23:12;101463.78;;;6.51;100.00
9141;BME280;46330;50.822;7.126;2022-11-30T01:25:39;101471.59;;;6.55;100.00
9141;BME280;46330;50.822;7.126;2022-11-30T01:28:08;101477.63;;;6.51;100.00
9141;BME280;46330;50.822;7.126;2022-11-30T01:30:36;101482.81;;;6.49;100.00
9141;BME280;46330;50.822;7.126;2022-11-30T01:33:05;101487.16;;;6.51;100.00
9141;BME280;46330;50.822;7.126;2022-11-30T01:35:33;101489.75;;;6.52;100.00
9141;BME280;46330;50.822;7.126;2022-11-30T01:38:01;101489.69;;;6.46;100.00
9141;BME280;46330;50.822;7.126;2022-11-30T01:40:28;101480.97;;;6.39;100.00
9141;BME280;46330;50.822;7.126;2022-11-30T01:42:56;101486.94;;;6.32;100.00
9141;BME280;46330;50.822;7.126;2022-11-30T01:45:24;101484.31;;;6.29;100.00
9141;BME280;46330;50.822;7.126;2022-11-30T01:47:55;101489.47;;;6.26;100.00
9141;BME280;46330;50.822;7.126;2022-11-30T01:50:29;101485.09;;;6.24;100.00
9141;BME280;46330;50.822;7.126;2022-11-30T01:52:58;101479.91;;;6.24;100.00
9141;BME280;46330;50.822;7.126;2022-11-30T01:55:28;101484.25;;;6.26;100.00
9141;BME280;46330;50.822;7.126;2022-11-30T01:58:00;101487.78;;;6.30;100.00
9141;BME280;46330;50.822;7.126;2022-11-30T02:00:28;101486.06;;;6.29;100.00
9141;BME280;46330;50.822;7.126;2022-11-30T02:03:00;101483.47;;;6.29;100.00
9141;BME280;46330;50.822;7.126;2022-11-30T02:05:32;101477.34;;;6.27;100.00
9141;BME280;46330;50.822;7.126;2022-11-30T02:08:00;101488.69;;;6.33;100.00
9141;BME280;46330;50.822;7.126;2022-11-30T02:10:30;101489.53;;;6.31;100.00
9141;BME280;46330;50.822;7.126;2022-11-30T02:15:56;101479.16;;;6.31;100.00
9141;BME280;46330;50.822;7.126;2022-11-30T02:18:32;101483.38;;;6.24;100.00
9141;BME280;46330;50.822;7.126;2022-11-30T02:21:11;101479.03;;;6.23;100.00
9141;BME280;46330;50.822;7.126;2022-11-30T02:27:01;101483.41;;;6.26;100.00
9141;BME280;46330;50.822;7.126;2022-11-30T02:29:34;101479.09;;;6.28;100.00
9141;BME280;46330;50.822;7.126;2022-11-30T02:32:08;101478.19;;;6.24;100.00
9141;BME280;46330;50.822;7.126;2022-11-30T02:34:39;101466.94;;;6.22;100.00
9141;BME280;46330;50.822;7.126;2022-11-30T02:37:11;101477.34;;;6.27;100.00
9141;BME280;46330;50.822;7.126;2022-11-30T02:39:39;101473.91;;;6.29;100.00
9141;BME280;46330;50.822;7.126;2022-11-30T02:42:10;101477.41;;;6.31;100.00
9141;BME280;46330;50.822;7.126;2022-11-30T02:44:42;101473.91;;;6.28;100.00
9141;BME280;46330;50.822;7.126;2022-11-30T02:47:17;101472.19;;;6.30;100.00
9141;BME280;46330;50.822;7.126;2022-11-30T02:49:52;101480.03;;;6.31;100.00
9141;BME280;46330;50.822;7.126;2022-11-30T02:52:23;101479.16;;;6.31;100.00
9141;BME280;46330;50.822;7.126;2022-11-30T02:54:52;101476.53;;;6.32;100.00
9141;BME280;46330;50.822;7.126;2022-11-30T02:57:24;101480.03;;;6.31;100.00
9141;BME280;46330;50.822;7.126;2022-11-30T02:59:54;101483.44;;;6.27;100.00
9141;BME280;46330;50.822;7.126;2022-11-30T03:02:22;101486.91;;;6.29;100.00
9141;BME280;46330;50.822;7.126;2022-11-30T03:04:49;101487.81;;;6.33;100.00
9141;BME280;46330;50.822;7.126;2022-11-30T03:07:17;101488.69;;;6.33;100.00
9141;BME280;46330;50.822;7.126;2022-11-30T03:09:45;101489.56;;;6.34;100.00
9141;BME280;46330;50.822;7.126;2022-11-30T03:12:13;101492.16;;;6.34;100.00
9141;BME280;46330;50.822;7.126;2022-11-30T03:14:41;101494.75;;;6.34;100.00
9141;BME280;46330;50.822;7.126;2022-11-30T03:17:10;101500.00;;;6.38;100.00
9141;BME280;46330;50.822;7.126;2022-11-30T03:19:38;101499.16;;;6.38;100.00
9141;BME280;46330;50.822;7.126;2022-11-30T03:22:05;101494.84;;;6.40;100.00
9141;BME280;46330;50.822;7.126;2022-11-30T03:24:33;101497.41;;;6.37;100.00
9141;BME280;46330;50.822;7.126;2022-11-30T03:27:01;101493.97;;;6.39;100.00
9141;BME280;46330;50.822;7.126;2022-11-30T03:29:29;101500.84;;;6.34;100.00
9141;BME280;46330;50.822;7.126;2022-11-30T03:31:56;101499.09;;;6.32;100.00
9141;BME280;46330;50.822;7.126;2022-11-30T03:34:26;101502.59;;;6.37;100.00
9141;BME280;46330;50.822;7.126;2022-11-30T03:36:54;101501.72;;;6.36;100.00
9141;BME280;46330;50.822;7.126;2022-11-30T03:39:22;101512.13;;;6.38;100.00
9141;BME280;46330;50.822;7.126;2022-11-30T03:41:50;101500.88;;;6.37;100.00
9141;BME280;46330;50.822;7.126;2022-11-30T03:44:17;101506.06;;;6.39;100.00
9141;BME280;46330;50.822;7.126;2022-11-30T03:46:45;101504.38;;;6.42;100.00
9141;BME280;46330;50.822;7.126;2022-11-30T03:49:13;101499.16;;;6.38;100.00
9141;BME280;46330;50.822;7.126;2022-11-30T03:51:42;101500.00;;;6.38;100.00
9141;BME280;46330;50.822;7.126;2022-11-30T03:54:10;101502.63;;;6.40;100.00
9141;BME280;46330;50.822;7.126;2022-11-30T03:56:38;101500.91;;;6.40;100.00
9141;BME280;46330;50.822;7.126;2022-11-30T03:59:05;101506.13;;;6.45;100.00
9141;BME280;46330;50.822;7.126;2022-11-30T04:01:33;101506.16;;;6.46;100.00
9141;BME280;46330;50.822;7.126;2022-11-30T04:04:02;101501.81;;;6.44;100.00
9141;BME280;46330;50.822;7.126;2022-11-30T04:06:30;101493.97;;;6.39;100.00
9141;BME280;46330;50.822;7.126;2022-11-30T04:08:59;101500.03;;;6.40;100.00
9141;BME280;46330;50.822;7.126;2022-11-30T04:11:27;101495.78;;;6.46;100.00
9141;BME280;46330;50.822;7.126;2022-11-30T04:13:54;101493.19;;;6.46;100.00
9141;BME280;46330;50.822;7.126;2022-11-30T04:16:22;101487.13;;;6.47;100.00
9141;BME280;46330;50.822;7.126;2022-11-30T04:18:50;101488.84;;;6.47;100.00
9141;BME280;46330;50.822;7.126;2022-11-30T04:21:18;101496.66;;;6.47;100.00
9141;BME280;46330;50.822;7.126;2022-11-30T04:23:45;101490.59;;;6.48;100.00
9141;BME280;46330;50.822;7.126;2022-11-30T04:26:15;101489.66;;;6.43;100.00
9141;BME280;46330;50.822;7.126;2022-11-30T04:28:44;101494.00;;;6.41;100.00
9141;BME280;46330;50.822;7.126;2022-11-30T04:31:12;101481.88;;;6.44;100.00
9141;BME280;46330;50.822;7.126;2022-11-30T04:33:40;101488.75;;;6.39;100.00
9141;BME280;46330;50.822;7.126;2022-11-30T04:36:15;101474.06;;;6.44;100.00
9141;BME280;46330;50.822;7.126;2022-11-30T04:38:44;101491.41;;;6.45;100.00
9141;BME280;46330;50.822;7.126;2022-11-30T04:41:12;101493.16;;;6.45;100.00
9141;BME280;46330;50.822;7.126;2022-11-30T04:43:41;101495.81;;;6.51;100.00
9141;BME280;46330;50.822;7.126;2022-11-30T04:46:09;101495.78;;;6.46;100.00
9141;BME280;46330;50.822;7.126;2022-11-30T04:48:37;101495.75;;;6.45;100.00
9141;BME280;46330;50.822;7.126;2022-11-30T04:51:06;101500.06;;;6.44;100.00
9141;BME280;46330;50.822;7.126;2022-11-30T04:53:35;101497.50;;;6.46;100.00
9141;BME280;46330;50.822;7.126;2022-11-30T04:56:04;101505.34;;;6.51;100.00
9141;BME280;46330;50.822;7.126;2022-11-30T04:58:33;101498.41;;;6.51;100.00
9141;BME280;46330;50.822;7.126;2022-11-30T05:01:02;101500.97;;;6.48;100.00
9141;BME280;46330;50.822;7.126;2022-11-30T05:03:30;101499.25;;;6.48;100.00
9141;BME280;46330;50.822;7.126;2022-11-30T05:05:58;101492.38;;;6.51;100.00
9141;BME280;46330;50.822;7.126;2022-11-30T05:08:26;101501.84;;;6.48;100.00
9141;BME280;46330;50.822;7.126;2022-11-30T05:10:54;101507.88;;;6.46;100.00
9141;BME280;46330;50.822;7.126;2022-11-30T05:13:23;101498.38;;;6.46;100.00
9141;BME280;46330;50.822;7.126;2022-11-30T05:15:51;101508.81;;;6.49;100.00
9141;BME280;46330;50.822;7.126;2022-11-30T05:18:20;101499.25;;;6.47;100.00
9141;BME280;46330;50.822;7.126;2022-11-30T05:20:49;101494.09;;;6.50;100.00
9141;BME280;46330;50.822;7.126;2022-11-30T05:23:17;101503.59;;;6.49;100.00
9141;BME280;46330;50.822;7.126;2022-11-30T05:25:46;101501.78;;;6.41;100.00
9141;BME280;46330;50.822;7.126;2022-11-30T05:28:14;101505.25;;;6.44;100.00
9141;BME280;46330;50.822;7.126;2022-11-30T05:30:42;101505.31;;;6.47;100.00
9141;BME280;46330;50.822;7.126;2022-11-30T05:33:10;101498.34;;;6.45;100.00
9141;BME280;46330;50.822;7.126;2022-11-30T05:35:40;101498.34;;;6.45;100.00
9141;BME280;46330;50.822;7.126;2022-11-30T05:38:07;101498.38;;;6.46;100.00
9141;BME280;46330;50.822;7.126;2022-11-30T05:40:35;101504.44;;;6.47;100.00
9141;BME280;46330;50.822;7.126;2022-11-30T05:43:03;101508.81;;;6.51;100.00
9141;BME280;46330;50.822;7.126;2022-11-30T05:45:31;101511.38;;;6.48;100.00
9141;BME280;46330;50.822;7.126;2022-11-30T05:47:59;101508.78;;;6.46;100.00
9141;BME280;46330;50.822;7.126;2022-11-30T05:50:27;101507.88;;;6.46;100.00
9141;BME280;46330;50.822;7.126;2022-11-30T05:52:56;101510.50;;;6.46;100.00
9141;BME280;46330;50.822;7.126;2022-11-30T05:55:27;101509.63;;;6.44;100.00
9141;BME280;46330;50.822;7.126;2022-11-30T05:57:54;101513.06;;;6.44;100.00
9141;BME280;46330;50.822;7.126;2022-11-30T06:00:22;101520.00;;;6.45;100.00
9141;BME280;46330;50.822;7.126;2022-11-30T06:02:54;101517.44;;;6.47;100.00
9141;BME280;46330;50.822;7.126;2022-11-30T06:05:22;101514.88;;;6.50;100.00
9141;BME280;46330;50.822;7.126;2022-11-30T06:07:51;101514.00;;;6.49;100.00
9141;BME280;46330;50.822;7.126;2022-11-30T06:10:20;101513.13;;;6.49;100.00
9141;BME280;46330;50.822;7.126;2022-11-30T06:12:48;101515.75;;;6.51;100.00
9141;BME280;46330;50.822;7.126;2022-11-30T06:15:15;101524.47;;;6.56;100.00
9141;BME280;46330;50.822;7.126;2022-11-30T06:17:43;101520.94;;;6.51;100.00
9141;BME280;46330;50.822;7.126;2022-11-30T06:20:12;101525.31;;;6.53;100.00
9141;BME280;46330;50.822;7.126;2022-11-30T06:22:44;101527.00;;;6.51;100.00
9141;BME280;46330;50.822;7.126;2022-11-30T06:25:11;101521.78;;;6.51;100.00
9141;BME280;46330;50.822;7.126;2022-11-30T06:27:41;101526.97;;;6.48;100.00
9141;BME280;46330;50.822;7.126;2022-11-30T06:30:10;101526.16;;;6.52;100.00
9141;BME280;46330;50.822;7.126;2022-11-30T06:32:38;101528.81;;;6.57;100.00
9141;BME280;46330;50.822;7.126;2022-11-30T06:35:06;101535.69;;;6.55;100.00
9141;BME280;46330;50.822;7.126;2022-11-30T06:37:34;101530.50;;;6.53;100.00
9141;BME280;46330;50.822;7.126;2022-11-30T06:40:03;101530.50;;;6.55;100.00
9141;BME280;46330;50.822;7.126;2022-11-30T06:42:34;101531.38;;;6.54;100.00
9141;BME280;46330;50.822;7.126;2022-11-30T06:45:05;101532.25;;;6.57;100.00
9141;BME280;46330;50.822;7.126;2022-11-30T06:47:33;101533.13;;;6.56;100.00
9141;BME280;46330;50.822;7.126;2022-11-30T06:50:01;101532.28;;;6.60;100.00
9141;BME280;46330;50.822;7.126;2022-11-30T06:52:29;101538.38;;;6.59;100.00
9141;BME280;46330;50.822;7.126;2022-11-30T06:54:57;101534.81;;;6.54;100.00
9141;BME280;46330;50.822;7.126;2022-11-30T06:57:26;101540.06;;;6.56;100.00
9141;BME280;46330;50.822;7.126;2022-11-30T06:59:54;101543.53;;;6.56;100.00
9141;BME280;46330;50.822;7.126;2022-11-30T07:02:24;101540.94;;;6.58;100.00
9141;BME280;46330;50.822;7.126;2022-11-30T07:04:52;101552.22;;;6.57;100.00
9141;BME280;46330;50.822;7.126;2022-11-30T07:07:19;101549.59;;;6.57;100.00
9141;BME280;46330;50.822;7.126;2022-11-30T07:09:48;101547.78;;;6.51;100.00
9141;BME280;46330;50.822;7.126;2022-11-30T07:12:16;101543.50;;;6.53;100.00
9141;BME280;46330;50.822;7.126;2022-11-30T07:14:44;101547.84;;;6.56;100.00
9141;BME280;46330;50.822;7.126;2022-11-30T07:17:12;101553.09;;;6.59;100.00
9141;BME280;46330;50.822;7.126;2022-11-30T07:19:41;101548.81;;;6.64;100.00
9141;BME280;46330;50.822;7.126;2022-11-30T07:22:09;101551.34;;;6.58;100.00
9141;BME280;46330;50.822;7.126;2022-11-30T07:24:37;101560.84;;;6.56;100.00
9141;BME280;46330;50.822;7.126;2022-11-30T07:27:22;101562.47;;;6.46;100.00
9141;BME280;46330;50.822;7.126;2022-11-30T07:29:50;101573.69;;;6.43;100.00
9141;BME280;46330;50.822;7.126;2022-11-30T07:32:18;101575.34;;;6.37;100.00
9141;BME280;46330;50.822;7.126;2022-11-30T07:34:47;101564.97;;;6.40;100.00
9141;BME280;46330;50.822;7.126;2022-11-30T07:37:15;101569.22;;;6.33;100.00
9141;BME280;46330;50.822;7.126;2022-11-30T07:39:43;101577.94;;;6.38;100.00
9141;BME280;46330;50.822;7.126;2022-11-30T07:42:11;101564.09;;;6.39;100.00
9141;BME280;46330;50.822;7.126;2022-11-30T07:44:40;101563.19;;;6.36;100.00
9141;BME280;46330;50.822;7.126;2022-11-30T07:47:08;101570.81;;;6.22;100.00
9141;BME280;46330;50.822;7.126;2022-11-30T07:49:36;101564.78;;;6.26;100.00
9141;BME280;46330;50.822;7.126;2022-11-30T07:52:06;101578.63;;;6.24;100.00
9141;BME280;46330;50.822;7.126;2022-11-30T07:54:34;101585.56;;;6.25;100.00
9141;BME280;46330;50.822;7.126;2022-11-30T07:57:01;101582.19;;;6.30;100.00
9141;BME280;46330;50.822;7.126;2022-11-30T07:59:29;101576.09;;;6.30;100.00
9141;BME280;46330;50.822;7.126;2022-11-30T08:01:57;101584.81;;;6.32;100.00
9141;BME280;46330;50.822;7.126;2022-11-30T08:04:26;101586.50;;;6.30;100.00
9141;BME280;46330;50.822;7.126;2022-11-30T08:06:53;101590.78;;;6.25;100.00
9141;BME280;46330;50.822;7.126;2022-11-30T08:09:22;101582.94;;;6.23;100.00
9141;BME280;46330;50.822;7.126;2022-11-30T08:11:50;101589.97;;;6.29;100.00
9141;BME280;46330;50.822;7.126;2022-11-30T08:14:18;101594.38;;;6.34;100.00
9141;BME280;46330;50.822;7.126;2022-11-30T08:16:46;101592.59;;;6.33;100.00
9141;BME280;46330;50.822;7.126;2022-11-30T08:19:14;101584.84;;;6.36;100.00
9141;BME280;46330;50.822;7.126;2022-11-30T08:21:42;101590.91;;;6.34;100.00
9141;BME280;46330;50.822;7.126;2022-11-30T08:24:10;101597.69;;;6.26;100.00
9141;BME280;46330;50.822;7.126;2022-11-30T08:26:40;101603.88;;;6.34;100.00
9141;BME280;46330;50.822;7.126;2022-11-30T08:29:08;101602.88;;;6.24;100.00
9141;BME280;46330;50.822;7.126;2022-11-30T08:31:36;101597.69;;;6.24;100.00
9141;BME280;46330;50.822;7.126;2022-11-30T08:34:06;101605.47;;;6.26;100.00
9141;BME280;46330;50.822;7.126;2022-11-30T08:36:34;101608.13;;;6.27;100.00
9141;BME280;46330;50.822;7.126;2022-11-30T08:39:03;101609.84;;;6.25;100.00
9141;BME280;46330;50.822;7.126;2022-11-30T08:41:32;101607.28;;;6.30;100.00
9141;BME280;46330;50.822;7.126;2022-11-30T08:44:02;101616.06;;;6.38;100.00
9141;BME280;46330;50.822;7.126;2022-11-30T08:46:30;101611.75;;;6.41;100.00
9141;BME280;46330;50.822;7.126;2022-11-30T08:49:18;101608.19;;;6.33;100.00
9141;BME280;46330;50.822;7.126;2022-11-30T08:51:51;101620.25;;;6.28;100.00
9141;BME280;46330;50.822;7.126;2022-11-30T08:54:40;101617.66;;;6.30;100.00
9141;BME280;46330;50.822;7.126;2022-11-30T08:57:11;101626.34;;;6.30;100.00
9141;BME280;46330;50.822;7.126;2022-11-30T08:59:40;101633.22;;;6.25;100.00
9141;BME280;46330;50.822;7.126;2022-11-30T09:02:08;101621.03;;;6.23;100.00
9141;BME280;46330;50.822;7.126;2022-11-30T09:04:36;101623.75;;;6.30;100.00
9141;BME280;46330;50.822;7.126;2022-11-30T09:07:04;101628.16;;;6.36;100.00
9141;BME280;46330;50.822;7.126;2022-11-30T09:09:31;101623.78;;;6.33;100.00
9141;BME280;46330;50.822;7.126;2022-11-30T09:11:59;101629.78;;;6.29;100.00
9141;BME280;46330;50.822;7.126;2022-11-30T09:14:27;101634.13;;;6.30;100.00
9141;BME280;46330;50.822;7.126;2022-11-30T09:16:57;101630.69;;;6.31;100.00
9141;BME280;46330;50.822;7.126;2022-11-30T09:19:25;101638.47;;;6.30;100.00
9141;BME280;46330;50.822;7.126;2022-11-30T09:21:53;101628.94;;;6.29;100.00
9141;BME280;46330;50.822;7.126;2022-11-30T09:24:21;101635.81;;;6.27;100.00
9141;BME280;46330;50.822;7.126;2022-11-30T09:26:49;101647.03;;;6.26;100.00
9141;BME280;46330;50.822;7.126;2022-11-30T09:29:16;101638.41;;;6.27;100.00
9141;BME280;46330;50.822;7.126;2022-11-30T09:31:44;101640.13;;;6.25;100.00
9141;BME280;46330;50.822;7.126;2022-11-30T09:34:13;101647.13;;;6.29;100.00
9141;BME280;46330;50.822;7.126;2022-11-30T09:36:41;101649.81;;;6.35;100.00
9141;BME280;46330;50.822;7.126;2022-11-30T09:39:09;101653.16;;;6.29;100.00
9141;BME280;46330;50.822;7.126;2022-11-30T09:42:00;101658.44;;;6.35;100.00
9141;BME280;46330;50.822;7.126;2022-11-30T09:44:37;101646.38;;;6.39;100.00
9141;BME280;46330;50.822;7.126;2022-11-30T09:47:20;101645.63;;;6.46;100.00
9141;BME280;46330;50.822;7.126;2022-11-30T09:50:01;101649.97;;;6.47;100.00
9141;BME280;46330;50.822;7.126;2022-11-30T09:52:33;101646.53;;;6.49;100.00
9141;BME280;46330;50.822;7.126;2022-11-30T09:55:07;101638.78;;;6.53;100.00
9141;BME280;46330;50.822;7.126;2022-11-30T09:57:42;101647.50;;;6.56;100.00
9141;BME280;46330;50.822;7.126;2022-11-30T10:00:14;101635.25;;;6.49;100.00
9141;BME280;46330;50.822;7.126;2022-11-30T10:02:43;101642.19;;;6.48;100.00
9141;BME280;46330;50.822;7.126;2022-11-30T10:05:15;101637.94;;;6.54;100.00
9141;BME280;46330;50.822;7.126;2022-11-30T10:08:03;101642.28;;;6.58;100.00
9141;BME280;46330;50.822;7.126;2022-11-30T10:10:38;101642.25;;;6.55;100.00
9141;BME280;46330;50.822;7.126;2022-11-30T10:13:18;101644.06;;;6.59;100.00
9141;BME280;46330;50.822;7.126;2022-11-30T10:15:59;101628.34;;;6.49;100.00
9141;BME280;46330;50.822;7.126;2022-11-30T10:18:39;101636.19;;;6.54;100.00
9141;BME280;46330;50.822;7.126;2022-11-30T10:21:19;101637.97;;;6.58;100.00
9141;BME280;46330;50.822;7.126;2022-11-30T10:24:00;101639.69;;;6.56;100.00
9141;BME280;46330;50.822;7.126;2022-11-30T10:26:33;101634.50;;;6.56;100.00
9141;BME280;46330;50.822;7.126;2022-11-30T10:29:11;101634.53;;;6.59;100.00
9141;BME280;46330;50.822;7.126;2022-11-30T10:31:42;101632.00;;;6.65;100.00
9141;BME280;46330;50.822;7.126;2022-11-30T10:34:21;101640.50;;;6.52;100.00
9141;BME280;46330;50.822;7.126;2022-11-30T10:36:53;101637.06;;;6.53;100.00
9141;BME280;46330;50.822;7.126;2022-11-30T10:39:31;101633.63;;;6.56;100.00
9141;BME280;46330;50.822;7.126;2022-11-30T10:42:05;101647.47;;;6.55;100.00
9141;BME280;46330;50.822;7.126;2022-11-30T10:44:38;101637.06;;;6.55;100.00
9141;BME280;46330;50.822;7.126;2022-11-30T10:47:13;101638.81;;;6.56;100.00
9141;BME280;46330;50.822;7.126;2022-11-30T10:49:45;101637.97;;;6.58;100.00
9141;BME280;46330;50.822;7.126;2022-11-30T10:52:17;101631.09;;;6.62;100.00
9141;BME280;46330;50.822;7.126;2022-11-30T10:54:48;101636.34;;;6.65;100.00
9141;BME280;46330;50.822;7.126;2022-11-30T10:57:23;101625.97;;;6.66;100.00
9141;BME280;46330;50.822;7.126;2022-11-30T10:59:53;101631.88;;;6.55;100.00
9141;BME280;46330;50.822;7.126;2022-11-30T11:02:35;101627.53;;;6.55;100.00
9141;BME280;46330;50.822;7.126;2022-11-30T11:05:17;101631.06;;;6.59;100.00
9141;BME280;46330;50.822;7.126;2022-11-30T11:07:58;101626.69;;;6.58;100.00
9141;BME280;46330;50.822;7.126;2022-11-30T11:10:34;101627.50;;;6.52;100.00
9141;BME280;46330;50.822;7.126;2022-11-30T11:13:03;101627.47;;;6.49;100.00
9141;BME280;46330;50.822;7.126;2022-11-30T11:15:33;101632.78;;;6.57;100.00
9141;BME280;46330;50.822;7.126;2022-11-30T11:18:19;101638.78;;;6.54;100.00
9141;BME280;46330;50.822;7.126;2022-11-30T11:20:48;101628.41;;;6.56;100.00
9141;BME280;46330;50.822;7.126;2022-11-30T11:23:35;101633.59;;;6.54;100.00
9141;BME280;46330;50.822;7.126;2022-11-30T11:26:04;101629.16;;;6.45;100.00
9141;BME280;46330;50.822;7.126;2022-11-30T11:28:33;101631.81;;;6.52;100.00
9141;BME280;46330;50.822;7.126;2022-11-30T11:31:15;101625.78;;;6.53;100.00
9141;BME280;46330;50.822;7.126;2022-11-30T11:33:49;101631.03;;;6.57;100.00
9141;BME280;46330;50.822;7.126;2022-11-30T11:36:24;101628.47;;;6.60;100.00
9141;BME280;46330;50.822;7.126;2022-11-30T11:38:55;101619.81;;;6.60;100.00
9141;BME280;46330;50.822;7.126;2022-11-30T11:41:26;101626.81;;;6.67;100.00
9141;BME280;46330;50.822;7.126;2022-11-30T11:43:58;101625.09;;;6.67;100.00
9141;BME280;46330;50.822;7.126;2022-11-30T11:46:29;101629.53;;;6.74;100.00
9141;BME280;46330;50.822;7.126;2022-11-30T11:48:59;101628.69;;;6.77;100.00
9141;BME280;46330;50.822;7.126;2022-11-30T11:51:29;101633.84;;;6.74;100.00
9141;BME280;46330;50.822;7.126;2022-11-30T11:54:01;101631.28;;;6.77;100.00
9141;BME280;46330;50.822;7.126;2022-11-30T11:56:32;101629.63;;;6.83;100.00
9141;BME280;46330;50.822;7.126;2022-11-30T11:59:06;101623.59;;;6.84;100.00
9141;BME280;46330;50.822;7.126;2022-11-30T12:01:47;101636.47;;;6.75;100.00
9141;BME280;46330;50.822;7.126;2022-11-30T12:04:32;101629.53;;;6.74;100.00
9141;BME280;46330;50.822;7.126;2022-11-30T12:07:09;101632.16;;;6.77;100.00
9141;BME280;46330;50.822;7.126;2022-11-30T12:09:53;101636.50;;;6.78;100.00
9141;BME280;46330;50.822;7.126;2022-11-30T12:12:22;101633.00;;;6.75;100.00
9141;BME280;46330;50.822;7.126;2022-11-30T12:14:50;101630.47;;;6.81;100.00
9141;BME280;46330;50.822;7.126;2022-11-30T12:17:30;101636.41;;;6.69;100.00
9141;BME280;46330;50.822;7.126;2022-11-30T12:20:06;101640.72;;;6.70;100.00
9141;BME280;46330;50.822;7.126;2022-11-30T12:22:48;101644.25;;;6.74;100.00
9141;BME280;46330;50.822;7.126;2022-11-30T12:25:25;101639.91;;;6.74;100.00
9141;BME280;46330;50.822;7.126;2022-11-30T12:28:00;101635.69;;;6.82;100.00
9141;BME280;46330;50.822;7.126;2022-11-30T12:30:39;101637.28;;;6.73;100.00
9141;BME280;46330;50.822;7.126;2022-11-30T12:33:21;101638.09;;;6.67;100.00
9141;BME280;46330;50.822;7.126;2022-11-30T12:35:58;101631.28;;;6.75;100.00
9141;BME280;46330;50.822;7.126;2022-11-30T12:38:37;101626.03;;;6.74;100.00
9141;BME280;46330;50.822;7.126;2022-11-30T12:41:21;101633.00;;;6.76;100.00
9141;BME280;46330;50.822;7.126;2022-11-30T12:43:57;101629.59;;;6.80;100.00
9141;BME280;46330;50.822;7.126;2022-11-30T12:46:33;101641.69;;;6.75;100.00
9141;BME280;46330;50.822;7.126;2022-11-30T12:49:18;101641.72;;;6.78;100.00
9141;BME280;46330;50.822;7.126;2022-11-30T12:51:51;101638.97;;;6.68;100.00
9141;BME280;46330;50.822;7.126;2022-11-30T12:54:27;101642.53;;;6.74;100.00
9141;BME280;46330;50.822;7.126;2022-11-30T12:57:07;101643.41;;;6.76;100.00
9141;BME280;46330;50.822;7.126;2022-11-30T12:59:42;101643.44;;;6.79;100.00
9141;BME280;46330;50.822;7.126;2022-11-30T13:02:32;101638.25;;;6.78;100.00
9141;BME280;46330;50.822;7.126;2022-11-30T13:05:07;101636.47;;;6.75;100.00
9141;BME280;46330;50.822;7.126;2022-11-30T13:07:42;101640.81;;;6.75;100.00
9141;BME280;46330;50.822;7.126;2022-11-30T13:10:20;101638.09;;;6.67;100.00
9141;BME280;46330;50.822;7.126;2022-11-30T13:12:53;101637.31;;;6.74;100.00
9141;BME280;46330;50.822;7.126;2022-11-30T13:15:25;101634.66;;;6.68;100.00
9141;BME280;46330;50.822;7.126;2022-11-30T13:17:54;101640.72;;;6.70;100.00
9141;BME280;46330;50.822;7.126;2022-11-30T13:20:26;101637.25;;;6.70;100.00
9141;BME280;46330;50.822;7.126;2022-11-30T13:23:03;101629.44;;;6.70;100.00
9141;BME280;46330;50.822;7.126;2022-11-30T13:25:38;101636.44;;;6.72;100.00